sensor_id;sensor_type;location;lat;lon;timestamp;P1;durP1;ratioP1;P2;durP2;ratioP2
57846;SDS011;43675;50.030;21.952;2022-10-26T00:00:46;55.28;;;49.58;;
57846;SDS011;43675;50.030;21.952;2022-10-26T00:03:14;48.87;;;40.70;;
57846;SDS011;43675;50.030;21.952;2022-10-26T00:05:40;44.08;;;39.33;;
57846;SDS011;43675;50.030;21.952;2022-10-26T00:08:07;47.43;;;40.48;;
57846;SDS011;43675;50.030;21.952;2022-10-26T00:10:33;43.10;;;38.60;;
57846;SDS011;43675;50.030;21.952;2022-10-26T00:13:00;49.60;;;39.20;;
57846;SDS011;43675;50.030;21.952;2022-10-26T00:15:26;47.00;;;40.10;;
57846;SDS011;43675;50.030;21.952;2022-10-26T00:17:52;47.23;;;39.67;;
57846;SDS011;43675;50.030;21.952;2022-10-26T00:20:25;47.78;;;40.35;;
57846;SDS011;43675;50.030;21.952;2022-10-26T00:22:50;46.73;;;40.80;;
57846;SDS011;43675;50.030;21.952;2022-10-26T00:25:16;46.65;;;40.98;;
57846;SDS011;43675;50.030;21.952;2022-10-26T00:27:41;46.70;;;41.42;;
57846;SDS011;43675;50.030;21.952;2022-10-26T00:30:08;48.00;;;38.70;;
57846;SDS011;43675;50.030;21.952;2022-10-26T00:32:33;45.65;;;40.20;;
57846;SDS011;43675;50.030;21.952;2022-10-26T00:34:59;51.35;;;40.88;;
57846;SDS011;43675;50.030;21.952;2022-10-26T00:37:25;45.03;;;39.75;;
57846;SDS011;43675;50.030;21.952;2022-10-26T00:39:50;48.15;;;40.58;;
57846;SDS011;43675;50.030;21.952;2022-10-26T00:42:20;44.93;;;40.23;;
57846;SDS011;43675;50.030;21.952;2022-10-26T00:52:35;45.43;;;40.50;;
57846;SDS011;43675;50.030;21.952;2022-10-26T00:55:02;53.45;;;41.08;;
57846;SDS011;43675;50.030;21.952;2022-10-26T00:57:29;47.67;;;41.33;;
57846;SDS011;43675;50.030;21.952;2022-10-26T00:59:55;48.38;;;41.40;;
57846;SDS011;43675;50.030;21.952;2022-10-26T01:02:22;48.60;;;39.80;;
57846;SDS011;43675;50.030;21.952;2022-10-26T01:04:48;45.95;;;40.00;;
57846;SDS011;43675;50.030;21.952;2022-10-26T01:07:14;47.08;;;39.88;;
57846;SDS011;43675;50.030;21.952;2022-10-26T01:09:40;44.73;;;39.55;;
57846;SDS011;43675;50.030;21.952;2022-10-26T01:12:06;42.45;;;37.88;;
57846;SDS011;43675;50.030;21.952;2022-10-26T01:14:31;41.80;;;37.17;;
57846;SDS011;43675;50.030;21.952;2022-10-26T01:22:22;41.50;;;37.10;;
57846;SDS011;43675;50.030;21.952;2022-10-26T01:36:01;41.50;;;37.30;;
57846;SDS011;43675;50.030;21.952;2022-10-26T01:38:23;41.60;;;37.40;;
57846;SDS011;43675;50.030;21.952;2022-10-26T01:43:49;40.15;;;35.85;;
57846;SDS011;43675;50.030;21.952;2022-10-26T01:46:22;39.55;;;35.30;;
57846;SDS011;43675;50.030;21.952;2022-10-26T01:48:50;39.30;;;34.70;;
57846;SDS011;43675;50.030;21.952;2022-10-26T01:51:25;38.20;;;34.23;;
57846;SDS011;43675;50.030;21.952;2022-10-26T01:53:53;37.98;;;34.25;;
57846;SDS011;43675;50.030;21.952;2022-10-26T01:56:27;36.83;;;33.08;;
57846;SDS011;43675;50.030;21.952;2022-10-26T01:59:08;37.35;;;33.42;;
57846;SDS011;43675;50.030;21.952;2022-10-26T02:01:55;35.48;;;32.00;;
57846;SDS011;43675;50.030;21.952;2022-10-26T02:04:40;36.08;;;32.30;;
57846;SDS011;43675;50.030;21.952;2022-10-26T02:07:24;33.45;;;29.80;;
57846;SDS011;43675;50.030;21.952;2022-10-26T02:10:07;34.00;;;30.37;;
57846;SDS011;43675;50.030;21.952;2022-10-26T02:15:38;34.45;;;31.02;;
57846;SDS011;43675;50.030;21.952;2022-10-26T02:21:05;35.40;;;30.95;;
57846;SDS011;43675;50.030;21.952;2022-10-26T02:23:33;35.70;;;32.00;;
57846;SDS011;43675;50.030;21.952;2022-10-26T02:26:01;35.05;;;31.48;;
57846;SDS011;43675;50.030;21.952;2022-10-26T02:28:30;33.95;;;30.60;;
57846;SDS011;43675;50.030;21.952;2022-10-26T02:30:59;34.13;;;30.68;;
57846;SDS011;43675;50.030;21.952;2022-10-26T02:33:29;34.08;;;30.68;;
57846;SDS011;43675;50.030;21.952;2022-10-26T02:35:57;34.03;;;30.60;;
57846;SDS011;43675;50.030;21.952;2022-10-26T02:38:27;34.55;;;30.95;;
57846;SDS011;43675;50.030;21.952;2022-10-26T02:40:55;32.23;;;28.95;;
57846;SDS011;43675;50.030;21.952;2022-10-26T02:43:22;31.80;;;28.60;;
57846;SDS011;43675;50.030;21.952;2022-10-26T02:45:55;32.67;;;28.65;;
57846;SDS011;43675;50.030;21.952;2022-10-26T02:48:22;32.20;;;28.90;;
57846;SDS011;43675;50.030;21.952;2022-10-26T02:53:52;31.85;;;28.70;;
57846;SDS011;43675;50.030;21.952;2022-10-26T02:56:27;33.00;;;28.70;;
57846;SDS011;43675;50.030;21.952;2022-10-26T02:58:55;31.45;;;27.98;;
57846;SDS011;43675;50.030;21.952;2022-10-26T03:01:24;31.30;;;28.20;;
57846;SDS011;43675;50.030;21.952;2022-10-26T03:03:51;30.55;;;27.22;;
57846;SDS011;43675;50.030;21.952;2022-10-26T03:06:20;29.48;;;26.50;;
57846;SDS011;43675;50.030;21.952;2022-10-26T03:08:47;30.72;;;27.40;;
57846;SDS011;43675;50.030;21.952;2022-10-26T03:11:19;30.48;;;27.40;;
57846;SDS011;43675;50.030;21.952;2022-10-26T03:13:45;29.80;;;26.68;;
57846;SDS011;43675;50.030;21.952;2022-10-26T03:16:11;30.97;;;27.65;;
57846;SDS011;43675;50.030;21.952;2022-10-26T03:18:36;29.27;;;26.07;;
57846;SDS011;43675;50.030;21.952;2022-10-26T03:21:02;28.52;;;25.60;;
57846;SDS011;43675;50.030;21.952;2022-10-26T03:23:34;30.05;;;26.95;;
57846;SDS011;43675;50.030;21.952;2022-10-26T03:26:06;29.82;;;26.73;;
57846;SDS011;43675;50.030;21.952;2022-10-26T03:28:32;29.18;;;25.68;;
57846;SDS011;43675;50.030;21.952;2022-10-26T03:31:05;28.77;;;25.77;;
57846;SDS011;43675;50.030;21.952;2022-10-26T03:33:31;27.93;;;25.23;;
57846;SDS011;43675;50.030;21.952;2022-10-26T03:35:56;27.90;;;25.10;;
57846;SDS011;43675;50.030;21.952;2022-10-26T03:38:22;32.88;;;27.45;;
57846;SDS011;43675;50.030;21.952;2022-10-26T03:40:48;29.87;;;26.70;;
57846;SDS011;43675;50.030;21.952;2022-10-26T03:43:13;30.70;;;27.32;;
57846;SDS011;43675;50.030;21.952;2022-10-26T03:45:39;31.65;;;28.42;;
57846;SDS011;43675;50.030;21.952;2022-10-26T03:48:04;32.90;;;28.73;;
57846;SDS011;43675;50.030;21.952;2022-10-26T03:50:30;29.87;;;26.75;;
57846;SDS011;43675;50.030;21.952;2022-10-26T03:53:02;30.27;;;27.30;;
57846;SDS011;43675;50.030;21.952;2022-10-26T03:55:28;28.55;;;25.85;;
57846;SDS011;43675;50.030;21.952;2022-10-26T03:57:54;30.48;;;27.55;;
57846;SDS011;43675;50.030;21.952;2022-10-26T04:00:20;30.02;;;26.82;;
57846;SDS011;43675;50.030;21.952;2022-10-26T04:02:52;29.82;;;26.73;;
57846;SDS011;43675;50.030;21.952;2022-10-26T04:05:20;30.10;;;27.15;;
57846;SDS011;43675;50.030;21.952;2022-10-26T04:07:56;31.30;;;27.82;;
57846;SDS011;43675;50.030;21.952;2022-10-26T04:12:47;31.90;;;27.82;;
57846;SDS011;43675;50.030;21.952;2022-10-26T04:15:12;31.10;;;26.62;;
57846;SDS011;43675;50.030;21.952;2022-10-26T04:17:39;30.40;;;27.22;;
57846;SDS011;43675;50.030;21.952;2022-10-26T04:20:05;30.68;;;27.80;;
57846;SDS011;43675;50.030;21.952;2022-10-26T04:22:32;31.57;;;28.50;;
57846;SDS011;43675;50.030;21.952;2022-10-26T04:25:04;32.10;;;28.00;;
57846;SDS011;43675;50.030;21.952;2022-10-26T04:27:30;30.70;;;27.58;;
57846;SDS011;43675;50.030;21.952;2022-10-26T04:29:56;31.60;;;28.42;;
57846;SDS011;43675;50.030;21.952;2022-10-26T04:32:22;31.10;;;27.82;;
57846;SDS011;43675;50.030;21.952;2022-10-26T04:34:54;31.27;;;28.20;;
57846;SDS011;43675;50.030;21.952;2022-10-26T04:37:19;33.25;;;29.90;;
57846;SDS011;43675;50.030;21.952;2022-10-26T04:39:45;32.90;;;29.48;;
57846;SDS011;43675;50.030;21.952;2022-10-26T04:42:11;31.27;;;27.65;;
57846;SDS011;43675;50.030;21.952;2022-10-26T04:44:36;31.07;;;28.27;;
57846;SDS011;43675;50.030;21.952;2022-10-26T04:47:02;31.95;;;28.77;;
57846;SDS011;43675;50.030;21.952;2022-10-26T04:49:27;31.35;;;27.98;;
57846;SDS011;43675;50.030;21.952;2022-10-26T04:51:53;33.10;;;29.60;;
57846;SDS011;43675;50.030;21.952;2022-10-26T04:54:19;31.60;;;28.50;;
57846;SDS011;43675;50.030;21.952;2022-10-26T04:56:45;33.15;;;29.85;;
57846;SDS011;43675;50.030;21.952;2022-10-26T04:59:10;33.53;;;29.90;;
57846;SDS011;43675;50.030;21.952;2022-10-26T05:01:36;33.38;;;28.98;;
57846;SDS011;43675;50.030;21.952;2022-10-26T05:04:08;33.65;;;28.17;;
57846;SDS011;43675;50.030;21.952;2022-10-26T05:06:33;34.70;;;29.95;;
57846;SDS011;43675;50.030;21.952;2022-10-26T05:08:59;33.67;;;29.82;;
57846;SDS011;43675;50.030;21.952;2022-10-26T05:11:32;31.53;;;28.53;;
57846;SDS011;43675;50.030;21.952;2022-10-26T05:13:58;33.42;;;30.02;;
57846;SDS011;43675;50.030;21.952;2022-10-26T05:16:30;34.98;;;30.45;;
57846;SDS011;43675;50.030;21.952;2022-10-26T05:18:55;33.00;;;29.67;;
57846;SDS011;43675;50.030;21.952;2022-10-26T05:21:21;33.92;;;30.45;;
57846;SDS011;43675;50.030;21.952;2022-10-26T05:23:50;33.58;;;29.42;;
57846;SDS011;43675;50.030;21.952;2022-10-26T05:26:16;39.50;;;30.88;;
57846;SDS011;43675;50.030;21.952;2022-10-26T05:28:42;33.30;;;29.80;;
57846;SDS011;43675;50.030;21.952;2022-10-26T05:31:08;34.50;;;29.37;;
57846;SDS011;43675;50.030;21.952;2022-10-26T05:33:33;33.15;;;29.65;;
57846;SDS011;43675;50.030;21.952;2022-10-26T05:35:59;32.73;;;29.42;;
57846;SDS011;43675;50.030;21.952;2022-10-26T05:38:24;33.05;;;28.80;;
57846;SDS011;43675;50.030;21.952;2022-10-26T05:40:51;32.53;;;28.87;;
57846;SDS011;43675;50.030;21.952;2022-10-26T05:43:18;31.73;;;28.62;;
57846;SDS011;43675;50.030;21.952;2022-10-26T05:45:45;31.95;;;28.75;;
57846;SDS011;43675;50.030;21.952;2022-10-26T05:48:11;36.15;;;28.55;;
57846;SDS011;43675;50.030;21.952;2022-10-26T05:50:37;33.75;;;28.57;;
57846;SDS011;43675;50.030;21.952;2022-10-26T05:53:10;32.95;;;27.70;;
57846;SDS011;43675;50.030;21.952;2022-10-26T05:55:36;31.52;;;28.25;;
57846;SDS011;43675;50.030;21.952;2022-10-26T05:58:02;31.52;;;28.15;;
57846;SDS011;43675;50.030;21.952;2022-10-26T06:00:28;31.12;;;28.10;;
57846;SDS011;43675;50.030;21.952;2022-10-26T06:06:00;31.85;;;28.65;;
57846;SDS011;43675;50.030;21.952;2022-10-26T06:08:26;33.15;;;29.70;;
57846;SDS011;43675;50.030;21.952;2022-10-26T06:10:53;34.45;;;30.40;;
57846;SDS011;43675;50.030;21.952;2022-10-26T06:13:21;34.83;;;31.02;;
57846;SDS011;43675;50.030;21.952;2022-10-26T06:16:00;35.20;;;31.40;;
57846;SDS011;43675;50.030;21.952;2022-10-26T06:24:11;39.33;;;32.93;;
57846;SDS011;43675;50.030;21.952;2022-10-26T06:26:50;38.38;;;32.55;;
57846;SDS011;43675;50.030;21.952;2022-10-26T06:31:51;33.08;;;29.48;;
57846;SDS011;43675;50.030;21.952;2022-10-26T06:34:25;36.95;;;29.18;;
57846;SDS011;43675;50.030;21.952;2022-10-26T06:36:52;31.40;;;28.17;;
57846;SDS011;43675;50.030;21.952;2022-10-26T06:39:21;30.35;;;27.25;;
57846;SDS011;43675;50.030;21.952;2022-10-26T06:41:48;31.80;;;28.25;;
57846;SDS011;43675;50.030;21.952;2022-10-26T06:44:19;31.90;;;27.87;;
57846;SDS011;43675;50.030;21.952;2022-10-26T06:49:29;30.45;;;27.17;;
57846;SDS011;43675;50.030;21.952;2022-10-26T06:51:58;29.92;;;27.02;;
57846;SDS011;43675;50.030;21.952;2022-10-26T06:57:08;30.60;;;26.65;;
57846;SDS011;43675;50.030;21.952;2022-10-26T07:02:14;28.67;;;25.75;;
57846;SDS011;43675;50.030;21.952;2022-10-26T07:04:41;28.55;;;25.65;;
57846;SDS011;43675;50.030;21.952;2022-10-26T07:07:14;30.25;;;26.75;;
57846;SDS011;43675;50.030;21.952;2022-10-26T07:09:51;29.55;;;26.27;;
57846;SDS011;43675;50.030;21.952;2022-10-26T07:12:17;29.07;;;25.82;;
57846;SDS011;43675;50.030;21.952;2022-10-26T07:14:43;30.57;;;26.95;;
57846;SDS011;43675;50.030;21.952;2022-10-26T07:17:08;28.90;;;26.15;;
57846;SDS011;43675;50.030;21.952;2022-10-26T07:19:34;30.48;;;27.17;;
57846;SDS011;43675;50.030;21.952;2022-10-26T07:22:00;29.50;;;26.55;;
57846;SDS011;43675;50.030;21.952;2022-10-26T07:24:26;34.95;;;26.48;;
57846;SDS011;43675;50.030;21.952;2022-10-26T07:26:59;28.93;;;25.73;;
57846;SDS011;43675;50.030;21.952;2022-10-26T07:29:26;28.62;;;25.85;;
57846;SDS011;43675;50.030;21.952;2022-10-26T07:31:52;32.08;;;25.15;;
57846;SDS011;43675;50.030;21.952;2022-10-26T07:34:18;28.42;;;25.20;;
57846;SDS011;43675;50.030;21.952;2022-10-26T07:36:43;29.85;;;26.68;;
57846;SDS011;43675;50.030;21.952;2022-10-26T07:39:10;29.50;;;25.60;;
57846;SDS011;43675;50.030;21.952;2022-10-26T07:41:35;33.02;;;25.80;;
57846;SDS011;43675;50.030;21.952;2022-10-26T07:44:01;30.15;;;26.05;;
57846;SDS011;43675;50.030;21.952;2022-10-26T07:46:27;27.93;;;25.25;;
57846;SDS011;43675;50.030;21.952;2022-10-26T07:48:52;28.62;;;25.68;;
57846;SDS011;43675;50.030;21.952;2022-10-26T07:51:18;27.25;;;24.25;;
57846;SDS011;43675;50.030;21.952;2022-10-26T07:53:44;28.25;;;25.23;;
57846;SDS011;43675;50.030;21.952;2022-10-26T07:56:11;26.85;;;24.12;;
57846;SDS011;43675;50.030;21.952;2022-10-26T07:58:44;27.85;;;24.87;;
57846;SDS011;43675;50.030;21.952;2022-10-26T08:01:14;26.90;;;23.35;;
57846;SDS011;43675;50.030;21.952;2022-10-26T08:03:40;26.07;;;23.42;;
57846;SDS011;43675;50.030;21.952;2022-10-26T08:06:06;26.75;;;23.87;;
57846;SDS011;43675;50.030;21.952;2022-10-26T08:08:32;26.73;;;24.00;;
57846;SDS011;43675;50.030;21.952;2022-10-26T08:10:58;25.85;;;22.42;;
57846;SDS011;43675;50.030;21.952;2022-10-26T08:13:24;23.52;;;20.95;;
57846;SDS011;43675;50.030;21.952;2022-10-26T08:15:55;23.92;;;21.45;;
57846;SDS011;43675;50.030;21.952;2022-10-26T08:18:25;24.37;;;21.80;;
57846;SDS011;43675;50.030;21.952;2022-10-26T08:20:51;23.85;;;21.40;;
57846;SDS011;43675;50.030;21.952;2022-10-26T08:23:23;24.43;;;21.82;;
57846;SDS011;43675;50.030;21.952;2022-10-26T08:25:49;22.65;;;20.68;;
57846;SDS011;43675;50.030;21.952;2022-10-26T08:28:14;22.87;;;20.88;;
57846;SDS011;43675;50.030;21.952;2022-10-26T08:30:40;22.60;;;20.45;;
57846;SDS011;43675;50.030;21.952;2022-10-26T08:33:12;25.45;;;21.40;;
57846;SDS011;43675;50.030;21.952;2022-10-26T08:35:38;23.47;;;21.05;;
57846;SDS011;43675;50.030;21.952;2022-10-26T08:38:03;23.60;;;21.20;;
57846;SDS011;43675;50.030;21.952;2022-10-26T08:40:30;24.32;;;20.27;;
57846;SDS011;43675;50.030;21.952;2022-10-26T08:42:58;22.90;;;20.68;;
57846;SDS011;43675;50.030;21.952;2022-10-26T08:45:37;21.62;;;19.67;;
57846;SDS011;43675;50.030;21.952;2022-10-26T08:48:02;21.77;;;19.60;;
57846;SDS011;43675;50.030;21.952;2022-10-26T08:50:32;21.70;;;19.45;;
57846;SDS011;43675;50.030;21.952;2022-10-26T08:55:49;22.95;;;19.25;;
57846;SDS011;43675;50.030;21.952;2022-10-26T08:58:20;21.30;;;19.20;;
57846;SDS011;43675;50.030;21.952;2022-10-26T09:00:48;20.43;;;18.52;;
57846;SDS011;43675;50.030;21.952;2022-10-26T09:03:16;21.00;;;18.80;;
57846;SDS011;43675;50.030;21.952;2022-10-26T09:05:53;21.60;;;19.30;;
57846;SDS011;43675;50.030;21.952;2022-10-26T09:11:20;20.95;;;19.02;;
57846;SDS011;43675;50.030;21.952;2022-10-26T09:14:10;22.17;;;18.37;;
57846;SDS011;43675;50.030;21.952;2022-10-26T09:21:54;19.77;;;17.87;;
57846;SDS011;43675;50.030;21.952;2022-10-26T09:24:28;18.67;;;16.90;;
57846;SDS011;43675;50.030;21.952;2022-10-26T09:29:58;19.00;;;17.37;;
57846;SDS011;43675;50.030;21.952;2022-10-26T09:32:38;20.85;;;17.98;;
57846;SDS011;43675;50.030;21.952;2022-10-26T09:38:02;19.20;;;17.27;;
57846;SDS011;43675;50.030;21.952;2022-10-26T09:43:03;19.55;;;17.77;;
57846;SDS011;43675;50.030;21.952;2022-10-26T09:45:40;18.95;;;17.23;;
57846;SDS011;43675;50.030;21.952;2022-10-26T09:48:12;18.67;;;16.95;;
57846;SDS011;43675;50.030;21.952;2022-10-26T09:50:47;19.32;;;17.35;;
57846;SDS011;43675;50.030;21.952;2022-10-26T09:53:20;18.73;;;16.93;;
57846;SDS011;43675;50.030;21.952;2022-10-26T09:55:46;17.82;;;16.42;;
57846;SDS011;43675;50.030;21.952;2022-10-26T09:58:26;17.90;;;16.48;;
57846;SDS011;43675;50.030;21.952;2022-10-26T10:00:53;18.67;;;16.95;;
57846;SDS011;43675;50.030;21.952;2022-10-26T10:03:20;18.90;;;17.25;;
57846;SDS011;43675;50.030;21.952;2022-10-26T10:05:48;17.50;;;16.00;;
57846;SDS011;43675;50.030;21.952;2022-10-26T10:08:21;19.25;;;17.37;;
57846;SDS011;43675;50.030;21.952;2022-10-26T10:10:53;18.77;;;17.10;;
57846;SDS011;43675;50.030;21.952;2022-10-26T10:13:31;17.98;;;16.52;;
57846;SDS011;43675;50.030;21.952;2022-10-26T10:18:54;19.25;;;17.45;;
57846;SDS011;43675;50.030;21.952;2022-10-26T10:21:31;18.10;;;16.32;;
57846;SDS011;43675;50.030;21.952;2022-10-26T10:24:23;17.95;;;16.45;;
57846;SDS011;43675;50.030;21.952;2022-10-26T10:27:03;18.92;;;16.10;;
57846;SDS011;43675;50.030;21.952;2022-10-26T10:29:32;18.52;;;17.02;;
57846;SDS011;43675;50.030;21.952;2022-10-26T10:32:01;19.25;;;17.60;;
57846;SDS011;43675;50.030;21.952;2022-10-26T10:34:34;19.57;;;17.37;;
57846;SDS011;43675;50.030;21.952;2022-10-26T10:37:00;19.25;;;17.45;;
57846;SDS011;43675;50.030;21.952;2022-10-26T10:39:37;19.65;;;17.95;;
57846;SDS011;43675;50.030;21.952;2022-10-26T10:42:03;19.20;;;17.50;;
57846;SDS011;43675;50.030;21.952;2022-10-26T10:44:31;20.82;;;18.82;;
57846;SDS011;43675;50.030;21.952;2022-10-26T10:47:01;20.72;;;18.90;;
57846;SDS011;43675;50.030;21.952;2022-10-26T10:49:29;20.32;;;18.62;;
57846;SDS011;43675;50.030;21.952;2022-10-26T10:51:55;20.77;;;18.82;;
57846;SDS011;43675;50.030;21.952;2022-10-26T11:00:04;21.17;;;19.23;;
57846;SDS011;43675;50.030;21.952;2022-10-26T11:02:47;20.32;;;18.45;;
57846;SDS011;43675;50.030;21.952;2022-10-26T11:05:19;21.10;;;19.10;;
57846;SDS011;43675;50.030;21.952;2022-10-26T11:10:43;21.02;;;18.92;;
57846;SDS011;43675;50.030;21.952;2022-10-26T11:13:29;22.52;;;19.85;;
57846;SDS011;43675;50.030;21.952;2022-10-26T11:15:58;21.87;;;19.65;;
57846;SDS011;43675;50.030;21.952;2022-10-26T11:18:30;21.55;;;19.23;;
57846;SDS011;43675;50.030;21.952;2022-10-26T11:21:05;20.55;;;18.65;;
57846;SDS011;43675;50.030;21.952;2022-10-26T11:23:51;20.50;;;18.60;;
57846;SDS011;43675;50.030;21.952;2022-10-26T11:32:05;20.65;;;18.70;;
57846;SDS011;43675;50.030;21.952;2022-10-26T11:34:46;19.85;;;18.05;;
57846;SDS011;43675;50.030;21.952;2022-10-26T11:37:38;20.17;;;18.27;;
57846;SDS011;43675;50.030;21.952;2022-10-26T11:40:25;20.40;;;18.35;;
57846;SDS011;43675;50.030;21.952;2022-10-26T11:48:43;17.20;;;15.70;;
57846;SDS011;43675;50.030;21.952;2022-10-26T11:51:16;17.60;;;15.90;;
57846;SDS011;43675;50.030;21.952;2022-10-26T11:53:43;17.90;;;16.15;;
57846;SDS011;43675;50.030;21.952;2022-10-26T11:56:12;18.10;;;16.25;;
57846;SDS011;43675;50.030;21.952;2022-10-26T11:58:40;20.32;;;18.55;;
57846;SDS011;43675;50.030;21.952;2022-10-26T12:01:08;19.77;;;17.90;;
57846;SDS011;43675;50.030;21.952;2022-10-26T12:03:40;20.00;;;18.40;;
57846;SDS011;43675;50.030;21.952;2022-10-26T12:06:09;19.67;;;17.98;;
57846;SDS011;43675;50.030;21.952;2022-10-26T12:08:38;18.85;;;17.32;;
57846;SDS011;43675;50.030;21.952;2022-10-26T12:14:18;19.07;;;17.52;;
57846;SDS011;43675;50.030;21.952;2022-10-26T12:19:47;17.50;;;16.20;;
57846;SDS011;43675;50.030;21.952;2022-10-26T12:22:33;19.00;;;17.57;;
57846;SDS011;43675;50.030;21.952;2022-10-26T12:32:49;18.30;;;16.65;;
57846;SDS011;43675;50.030;21.952;2022-10-26T12:35:28;17.95;;;16.40;;
57846;SDS011;43675;50.030;21.952;2022-10-26T12:38:03;17.75;;;16.17;;
57846;SDS011;43675;50.030;21.952;2022-10-26T12:40:47;17.92;;;16.27;;
57846;SDS011;43675;50.030;21.952;2022-10-26T12:48:48;18.65;;;16.95;;
57846;SDS011;43675;50.030;21.952;2022-10-26T12:51:40;17.07;;;15.58;;
57846;SDS011;43675;50.030;21.952;2022-10-26T13:10:21;16.85;;;15.25;;
57846;SDS011;43675;50.030;21.952;2022-10-26T13:12:51;17.55;;;15.95;;
57846;SDS011;43675;50.030;21.952;2022-10-26T13:15:20;17.42;;;15.70;;
57846;SDS011;43675;50.030;21.952;2022-10-26T13:18:00;17.02;;;15.43;;
57846;SDS011;43675;50.030;21.952;2022-10-26T13:20:58;16.70;;;15.30;;
57846;SDS011;43675;50.030;21.952;2022-10-26T13:23:25;16.65;;;15.38;;
57846;SDS011;43675;50.030;21.952;2022-10-26T13:26:05;16.07;;;14.78;;
57846;SDS011;43675;50.030;21.952;2022-10-26T13:34:02;16.55;;;15.13;;
57846;SDS011;43675;50.030;21.952;2022-10-26T13:36:35;15.70;;;14.50;;
57846;SDS011;43675;50.030;21.952;2022-10-26T13:39:09;16.40;;;15.00;;
57846;SDS011;43675;50.030;21.952;2022-10-26T13:41:44;15.98;;;14.50;;
57846;SDS011;43675;50.030;21.952;2022-10-26T13:44:21;16.15;;;14.65;;
57846;SDS011;43675;50.030;21.952;2022-10-26T13:46:49;15.50;;;14.28;;
57846;SDS011;43675;50.030;21.952;2022-10-26T13:49:21;16.10;;;14.43;;
57846;SDS011;43675;50.030;21.952;2022-10-26T13:51:49;16.45;;;14.95;;
57846;SDS011;43675;50.030;21.952;2022-10-26T13:54:24;16.02;;;14.35;;
57846;SDS011;43675;50.030;21.952;2022-10-26T13:56:56;15.50;;;14.10;;
57846;SDS011;43675;50.030;21.952;2022-10-26T13:59:30;16.17;;;14.63;;
57846;SDS011;43675;50.030;21.952;2022-10-26T14:04:52;16.42;;;14.87;;
57846;SDS011;43675;50.030;21.952;2022-10-26T14:07:22;15.50;;;14.30;;
57846;SDS011;43675;50.030;21.952;2022-10-26T14:09:56;16.67;;;14.80;;
57846;SDS011;43675;50.030;21.952;2022-10-26T14:12:35;16.25;;;14.80;;
57846;SDS011;43675;50.030;21.952;2022-10-26T14:15:05;16.45;;;15.15;;
57846;SDS011;43675;50.030;21.952;2022-10-26T14:17:31;16.20;;;14.90;;
57846;SDS011;43675;50.030;21.952;2022-10-26T14:20:04;16.60;;;15.32;;
57846;SDS011;43675;50.030;21.952;2022-10-26T14:22:30;16.90;;;15.40;;
57846;SDS011;43675;50.030;21.952;2022-10-26T14:24:57;15.75;;;14.40;;
57846;SDS011;43675;50.030;21.952;2022-10-26T14:27:25;15.90;;;14.60;;
57846;SDS011;43675;50.030;21.952;2022-10-26T14:29:53;16.10;;;14.63;;
57846;SDS011;43675;50.030;21.952;2022-10-26T14:32:27;16.15;;;14.65;;
57846;SDS011;43675;50.030;21.952;2022-10-26T14:34:54;16.37;;;14.93;;
57846;SDS011;43675;50.030;21.952;2022-10-26T14:37:24;17.05;;;15.50;;
57846;SDS011;43675;50.030;21.952;2022-10-26T14:39:52;16.90;;;15.38;;
57846;SDS011;43675;50.030;21.952;2022-10-26T14:42:24;16.17;;;14.87;;
57846;SDS011;43675;50.030;21.952;2022-10-26T14:44:50;16.48;;;15.08;;
57846;SDS011;43675;50.030;21.952;2022-10-26T14:47:20;16.93;;;15.60;;
57846;SDS011;43675;50.030;21.952;2022-10-26T14:49:45;17.75;;;16.25;;
57846;SDS011;43675;50.030;21.952;2022-10-26T14:52:21;16.90;;;15.50;;
57846;SDS011;43675;50.030;21.952;2022-10-26T14:54:59;16.45;;;15.00;;
57846;SDS011;43675;50.030;21.952;2022-10-26T14:57:31;16.05;;;14.75;;
57846;SDS011;43675;50.030;21.952;2022-10-26T15:00:03;17.15;;;15.65;;
57846;SDS011;43675;50.030;21.952;2022-10-26T15:02:36;18.23;;;16.45;;
57846;SDS011;43675;50.030;21.952;2022-10-26T15:05:14;16.55;;;15.23;;
57846;SDS011;43675;50.030;21.952;2022-10-26T15:07:50;16.95;;;15.58;;
57846;SDS011;43675;50.030;21.952;2022-10-26T15:18:49;23.12;;;20.62;;
57846;SDS011;43675;50.030;21.952;2022-10-26T15:21:33;22.75;;;20.10;;
57846;SDS011;43675;50.030;21.952;2022-10-26T15:26:49;23.57;;;20.72;;
57846;SDS011;43675;50.030;21.952;2022-10-26T15:32:03;23.75;;;21.15;;
57846;SDS011;43675;50.030;21.952;2022-10-26T15:34:31;27.37;;;21.87;;
57846;SDS011;43675;50.030;21.952;2022-10-26T15:36:57;20.48;;;18.15;;
57846;SDS011;43675;50.030;21.952;2022-10-26T15:39:24;18.85;;;16.82;;
57846;SDS011;43675;50.030;21.952;2022-10-26T15:41:50;21.17;;;17.23;;
57846;SDS011;43675;50.030;21.952;2022-10-26T15:44:16;19.98;;;18.10;;
57846;SDS011;43675;50.030;21.952;2022-10-26T15:46:45;22.20;;;20.10;;
57846;SDS011;43675;50.030;21.952;2022-10-26T15:49:15;23.95;;;20.75;;
57846;SDS011;43675;50.030;21.952;2022-10-26T15:51:46;25.10;;;20.05;;
57846;SDS011;43675;50.030;21.952;2022-10-26T15:54:13;22.82;;;20.45;;
57846;SDS011;43675;50.030;21.952;2022-10-26T15:56:39;24.60;;;21.62;;
57846;SDS011;43675;50.030;21.952;2022-10-26T15:59:12;26.62;;;23.85;;
57846;SDS011;43675;50.030;21.952;2022-10-26T16:01:40;25.82;;;23.02;;
57846;SDS011;43675;50.030;21.952;2022-10-26T16:04:07;30.50;;;23.85;;
57846;SDS011;43675;50.030;21.952;2022-10-26T16:06:33;28.07;;;23.77;;
57846;SDS011;43675;50.030;21.952;2022-10-26T16:09:00;25.68;;;23.12;;
57846;SDS011;43675;50.030;21.952;2022-10-26T16:11:28;30.75;;;23.90;;
57846;SDS011;43675;50.030;21.952;2022-10-26T16:14:01;25.75;;;22.85;;
57846;SDS011;43675;50.030;21.952;2022-10-26T16:16:27;30.32;;;23.62;;
57846;SDS011;43675;50.030;21.952;2022-10-26T16:18:53;29.80;;;23.90;;
57846;SDS011;43675;50.030;21.952;2022-10-26T16:21:21;27.10;;;23.27;;
57846;SDS011;43675;50.030;21.952;2022-10-26T16:23:55;26.57;;;23.47;;
57846;SDS011;43675;50.030;21.952;2022-10-26T16:26:21;26.10;;;23.50;;
57846;SDS011;43675;50.030;21.952;2022-10-26T16:28:48;26.27;;;23.62;;
57846;SDS011;43675;50.030;21.952;2022-10-26T16:31:15;26.30;;;23.75;;
57846;SDS011;43675;50.030;21.952;2022-10-26T16:33:42;27.37;;;23.15;;
57846;SDS011;43675;50.030;21.952;2022-10-26T16:36:08;26.75;;;24.15;;
57846;SDS011;43675;50.030;21.952;2022-10-26T16:38:35;26.25;;;23.73;;
57846;SDS011;43675;50.030;21.952;2022-10-26T16:41:01;26.65;;;24.05;;
57846;SDS011;43675;50.030;21.952;2022-10-26T16:43:39;27.85;;;25.02;;
57846;SDS011;43675;50.030;21.952;2022-10-26T16:46:20;27.40;;;24.82;;
57846;SDS011;43675;50.030;21.952;2022-10-26T16:48:44;33.10;;;25.95;;
57846;SDS011;43675;50.030;21.952;2022-10-26T16:51:14;41.83;;;33.85;;
57846;SDS011;43675;50.030;21.952;2022-10-26T16:53:42;39.30;;;33.83;;
57846;SDS011;43675;50.030;21.952;2022-10-26T16:58:39;42.50;;;35.45;;
57846;SDS011;43675;50.030;21.952;2022-10-26T17:01:06;45.00;;;35.05;;
57846;SDS011;43675;50.030;21.952;2022-10-26T17:03:33;39.67;;;35.38;;